Time;durP1;ratioP1;P1;durP2;ratioP2;P2;SDS_P1;SDS_P2;PMS_P1;PMS_P2;Temp;Humidity;BMP_temperature;BMP_pressure;BME280_temperature;BME280_humidity;BME280_pressure;Samples;Min_cycle;Max_cycle;Signal;HPM_P1;HPM_P2
2022/06/05 00:01:39;;;;;;;13.93;10.07;;;;;;;9.62;100.00;154942.78;4956670;28;20043;-80
2022/06/05 00:04:28;;;;;;;14.00;9.77;;;;;;;9.53;100.00;154922.28;4991015;28;20038;-79
2022/06/05 00:07:07;;;;;;;17.30;10.13;;;;;;;9.45;100.00;154900.47;4929451;28;20046;-80
2022/06/05 00:09:54;;;;;;;13.13;9.75;;;;;;;9.44;100.00;154897.94;4987058;28;20566;-82
2022/06/05 00:12:28;;;;;;;17.33;10.35;;;;;;;9.40;100.00;154888.94;4985905;28;20035;-80
2022/06/05 00:14:54;;;;;;;17.38;10.80;;;;;;;9.32;100.00;154868.41;4972756;28;20030;-80
2022/06/05 00:17:21;;;;;;;17.48;10.52;;;;;;;9.32;100.00;154868.41;4998556;28;20092;-80
2022/06/05 00:19:52;;;;;;;14.73;9.77;;;;;;;9.32;100.00;154869.72;4948445;28;20049;-81
2022/06/05 00:22:19;;;;;;;12.80;9.82;;;;;;;9.35;100.00;154877.38;4951767;28;20050;-80
2022/06/05 00:24:45;;;;;;;16.33;10.57;;;;;;;9.29;100.00;154862.03;4956217;28;20077;-81
2022/06/05 00:27:32;;;;;;;19.23;10.88;;;;;;;9.21;100.00;154840.22;4946396;28;20058;-80
2022/06/05 00:30:12;;;;;;;17.73;11.57;;;;;;;9.22;100.00;154842.78;4979739;28;20034;-80
2022/06/05 00:32:47;;;;;;;15.48;10.82;;;;;;;9.16;100.00;154828.69;4964702;28;20057;-80
2022/06/05 00:35:16;;;;;;;16.35;10.73;;;;;;;9.04;100.00;154799.22;4936586;28;20035;-79
2022/06/05 00:37:53;;;;;;;16.55;10.85;;;;;;;9.02;100.00;154792.78;4984803;28;20389;-79
2022/06/05 00:40:52;;;;;;;21.65;11.27;;;;;;;8.98;100.00;154783.81;4963094;28;20045;-81
2022/06/05 00:43:20;;;;;;;15.35;10.85;;;;;;;8.94;100.00;154773.56;4951197;28;20061;-81
2022/06/05 00:45:46;;;;;;;16.20;11.70;;;;;;;8.91;100.00;154765.88;4966851;28;20035;-80
2022/06/05 00:48:12;;;;;;;14.50;10.38;;;;;;;8.90;100.00;154764.59;4958317;28;20034;-80
2022/06/05 00:50:40;;;;;;;16.20;11.95;;;;;;;8.96;100.00;154779.97;4958636;28;20026;-80
2022/06/05 00:53:07;;;;;;;19.75;11.30;;;;;;;8.89;100.00;154762.06;4980763;28;20049;-80
2022/06/05 00:55:43;;;;;;;20.52;11.60;;;;;;;8.90;100.00;154763.31;4990688;28;20049;-81
2022/06/05 00:58:09;;;;;;;18.13;11.07;;;;;;;8.87;100.00;154755.63;4941388;28;20039;-80
2022/06/05 01:00:38;;;;;;;16.42;10.80;;;;;;;8.94;100.00;154773.56;4945240;28;20031;-80
2022/06/05 01:03:07;;;;;;;15.80;10.95;;;;;;;8.92;100.00;154768.44;4975074;28;20034;-79
2022/06/05 01:05:35;;;;;;;20.25;11.95;;;;;;;8.88;100.00;154759.47;4965282;28;20030;-81
2022/06/05 01:08:01;;;;;;;15.02;10.48;;;;;;;8.86;100.00;154753.06;4995724;28;20065;-81
2022/06/05 01:10:40;;;;;;;22.05;12.05;;;;;;;8.80;100.00;154738.97;4976662;28;20405;-81
2022/06/05 01:13:38;;;;;;;19.58;12.02;;;;;;;8.86;100.00;154753.06;4975492;28;20038;-79
2022/06/05 01:16:18;;;;;;;18.25;13.27;;;;;;;8.81;100.00;154740.25;4915051;28;20061;-80
2022/06/05 01:18:44;;;;;;;21.63;12.73;;;;;;;8.75;100.00;154726.16;4969142;28;20053;-79
2022/06/05 01:21:38;;;;;;;16.60;12.32;;;;;;;8.64;100.00;154697.97;4940291;28;20505;-81
2022/06/05 01:24:28;;;;;;;17.45;13.18;;;;;;;8.60;100.00;154687.72;4968447;28;20049;-79
2022/06/05 01:27:01;;;;;;;20.45;14.25;;;;;;;8.54;100.00;154673.63;4949879;28;20027;-80
2022/06/05 01:29:29;;;;;;;17.00;13.30;;;;;;;8.55;100.00;154677.47;4950266;28;20035;-79
2022/06/05 01:32:02;;;;;;;15.88;13.00;;;;;;;8.50;100.00;154664.66;4955840;28;20054;-80
2022/06/05 01:34:52;;;;;;;19.35;13.65;;;;;;;8.50;100.00;154663.38;4972561;28;20085;-81
2022/06/05 01:37:20;;;;;;;20.98;14.18;;;;;;;8.60;100.00;154687.72;4940756;28;20129;-80
2022/06/05 01:39:51;;;;;;;20.48;14.35;;;;;;;8.58;100.00;154685.13;4975636;28;20100;-81
2022/06/05 01:42:24;;;;;;;17.73;13.68;;;;;;;8.56;100.00;154678.75;4962634;28;20041;-81
2022/06/05 01:44:55;;;;;;;21.27;14.23;;;;;;;8.55;100.00;154676.16;4973211;28;21024;-80
2022/06/05 01:47:27;;;;;;;19.95;13.48;;;;;;;8.55;100.00;154676.16;4969634;28;20058;-80
2022/06/05 01:49:59;;;;;;;21.85;13.52;;;;;;;8.57;100.00;154681.34;4979823;28;20037;-81
2022/06/05 01:52:49;;;;;;;22.13;13.30;;;;;;;8.45;100.00;154651.81;4954850;28;20042;-80
2022/06/05 01:55:21;;;;;;;18.77;13.25;;;;;;;8.39;100.00;154637.69;4963760;28;20030;-80
2022/06/05 01:57:50;;;;;;;21.33;13.43;;;;;;;8.31;100.00;154617.22;4979070;28;20026;-81
2022/06/05 02:00:19;;;;;;;18.20;13.90;;;;;;;8.28;100.00;154608.25;4978466;28;20102;-79
2022/06/05 02:02:48;;;;;;;21.63;14.20;;;;;;;8.18;100.00;154585.19;4975065;28;20157;-81
2022/06/05 02:05:19;;;;;;;19.88;13.60;;;;;;;8.13;100.00;154572.34;4957600;28;20031;-80
2022/06/05 02:07:48;;;;;;;17.75;13.02;;;;;;;8.19;100.00;154586.44;4968569;28;20030;-82
2022/06/05 02:10:21;;;;;;;18.58;13.30;;;;;;;8.19;100.00;154587.75;4981917;28;20030;-80
2022/06/05 02:12:47;;;;;;;23.65;14.30;;;;;;;8.14;100.00;154574.94;4998044;28;20034;-81
2022/06/05 02:15:13;;;;;;;19.77;13.65;;;;;;;8.12;100.00;154569.81;4974986;28;20053;-79
2022/06/05 02:17:39;;;;;;;20.33;14.15;;;;;;;8.12;100.00;154568.56;4964347;28;20038;-78
2022/06/05 02:20:07;;;;;;;23.42;13.90;;;;;;;8.06;100.00;154553.16;4982465;28;20022;-79
2022/06/05 02:22:37;;;;;;;20.23;14.68;;;;;;;8.05;100.00;154551.88;5002342;28;20558;-80
2022/06/05 02:25:04;;;;;;;18.73;13.38;;;;;;;8.08;100.00;154559.56;4958242;28;20034;-78
2022/06/05 02:27:30;;;;;;;23.80;14.27;;;;;;;8.07;100.00;154555.72;4965854;28;20038;-80
2022/06/05 02:29:57;;;;;;;18.23;13.52;;;;;;;7.96;100.00;154528.81;4954100;28;20042;-80
2022/06/05 02:33:18;;;;;;;20.85;14.07;;;;;;;7.94;100.00;154524.97;4968721;28;20050;-79
2022/06/05 02:35:52;;;;;;;19.27;13.70;;;;;;;7.96;100.00;154530.09;4907702;29;20067;-80
2022/06/05 02:38:50;;;;;;;21.08;14.27;;;;;;;8.07;100.00;154555.72;4925922;29;20453;-79
2022/06/05 02:41:40;;;;;;;23.42;14.95;;;;;;;8.09;100.00;154562.13;4989770;28;20043;-79
2022/06/05 02:44:31;;;;;;;22.13;14.05;;;;;;;8.19;100.00;154586.44;4968379;28;20027;-78
2022/06/05 02:47:05;;;;;;;19.80;14.88;;;;;;;8.19;100.00;154586.44;4991335;28;20137;-79
2022/06/05 02:49:49;;;;;;;21.08;14.30;;;;;;;8.03;100.00;154546.75;4982868;28;20120;-80
2022/06/05 02:52:15;;;;;;;27.90;14.52;;;;;;;7.97;100.00;154531.41;4950601;28;20035;-80
2022/06/05 02:54:50;;;;;;;20.75;14.77;;;;;;;7.93;100.00;154521.13;4977896;28;20054;-80
2022/06/05 02:57:16;;;;;;;22.00;14.93;;;;;;;7.96;100.00;154530.09;4959177;28;20148;-81
2022/06/05 02:59:42;;;;;;;22.45;14.65;;;;;;;8.01;100.00;154540.38;5001135;28;20802;-80
2022/06/05 03:04:52;;;;;;;22.88;15.45;;;;;;;7.96;100.00;154528.81;5001301;28;20296;-80
2022/06/05 03:07:17;;;;;;;25.67;16.80;;;;;;;8.01;100.00;154541.63;4994008;28;20058;-81
2022/06/05 03:09:43;;;;;;;25.05;16.10;;;;;;;7.99;100.00;154537.78;4971869;28;20049;-79
2022/06/05 03:12:10;;;;;;;23.52;16.35;;;;;;;7.95;100.00;154526.28;4982603;28;20046;-80
2022/06/05 03:14:35;;;;;;;22.10;15.13;;;;;;;7.95;100.00;154527.56;4966396;28;20403;-80
2022/06/05 03:17:01;;;;;;;23.88;16.00;;;;;;;8.06;100.00;154553.16;5004548;28;20113;-79
2022/06/05 03:19:27;;;;;;;26.58;15.82;;;;;;;7.96;100.00;154528.81;4962460;28;20040;-81
2022/06/05 03:21:52;;;;;;;23.65;16.20;;;;;;;8.11;100.00;154567.22;4995344;28;20045;-80
2022/06/05 03:24:18;;;;;;;23.17;15.40;;;;;;;8.16;100.00;154580.06;4975555;28;20113;-82
2022/06/05 03:26:45;;;;;;;21.60;15.60;;;;;;;8.12;100.00;154569.81;4968276;28;20039;-81
2022/06/05 03:29:10;;;;;;;23.20;14.65;;;;;;;8.15;100.00;154577.47;4998998;28;20539;-80
2022/06/05 03:31:36;;;;;;;21.50;15.00;;;;;;;8.15;100.00;154577.47;4998240;28;20042;-80
2022/06/05 03:34:03;;;;;;;21.42;14.95;;;;;;;8.18;100.00;154585.19;4939175;28;20046;-80
2022/06/05 03:36:28;;;;;;;21.23;15.48;;;;;;;8.18;100.00;154585.19;4967571;28;20039;-81
2022/06/05 03:38:54;;;;;;;22.48;15.55;;;;;;;8.27;100.00;154605.66;4989123;28;20033;-81
2022/06/05 03:41:19;;;;;;;23.17;15.63;;;;;;;8.28;100.00;154608.25;4973990;28;20038;-81
2022/06/05 03:43:46;;;;;;;23.52;15.25;;;;;;;8.28;100.00;154609.50;4994708;28;20030;-80
2022/06/05 03:46:14;;;;;;;22.63;16.52;;;;;;;8.22;100.00;154594.16;4988010;28;20092;-82
2022/06/05 03:48:39;;;;;;;21.52;16.48;;;;;;;8.27;100.00;154605.66;5000963;28;20034;-81
2022/06/05 03:51:17;;;;;;;22.35;16.35;;;;;;;8.36;100.00;154628.72;4950053;28;20417;-81
2022/06/05 03:53:43;;;;;;;20.85;15.88;;;;;;;8.42;100.00;154644.19;4997979;28;20045;-81
2022/06/05 03:56:12;;;;;;;24.58;15.48;;;;;;;8.42;100.00;154642.84;4983632;28;20117;-80
2022/06/05 03:58:38;;;;;;;19.10;15.30;;;;;;;8.50;100.00;154663.38;4989772;28;20039;-81
2022/06/05 04:01:10;;;;;;;21.90;17.27;;;;;;;8.55;100.00;154676.16;4983212;28;20038;-81
2022/06/05 04:03:36;;;;;;;21.25;16.33;;;;;;;8.64;100.00;154699.22;4982446;28;20031;-81
2022/06/05 04:06:10;;;;;;;25.70;16.40;;;;;;;8.72;100.00;154718.44;4957958;28;20077;-80
2022/06/05 04:08:37;;;;;;;21.35;16.05;;;;;;;8.84;100.00;154749.22;4980880;28;20058;-81
2022/06/05 04:11:08;;;;;;;20.48;14.90;;;;;;;8.91;100.00;154767.19;4946671;28;20042;-80
2022/06/05 04:13:34;;;;;;;24.33;17.25;;;;;;;8.92;100.00;154769.72;4955855;28;20122;-81
2022/06/05 04:16:00;;;;;;;20.73;15.85;;;;;;;8.94;100.00;154773.56;4980089;28;20050;-80
2022/06/05 04:18:26;;;;;;;22.13;15.13;;;;;;;9.17;100.00;154831.22;4999927;28;20824;-80
2022/06/05 04:20:51;;;;;;;21.70;16.70;;;;;;;9.23;100.00;154845.34;4989352;28;20022;-81
2022/06/05 04:23:17;;;;;;;22.65;16.85;;;;;;;9.38;100.00;154882.50;4971510;28;20038;-81
2022/06/05 04:25:43;;;;;;;22.58;16.27;;;;;;;9.48;100.00;154908.19;4975426;28;20128;-80
2022/06/05 04:28:10;;;;;;;22.63;15.65;;;;;;;9.46;100.00;154904.31;4933152;28;20425;-81
2022/06/05 04:30:37;;;;;;;24.05;16.13;;;;;;;9.53;100.00;154920.97;4965870;28;20543;-81
2022/06/05 04:33:03;;;;;;;19.45;15.65;;;;;;;9.81;100.00;154990.22;4969790;28;20049;-80
2022/06/05 04:35:29;;;;;;;19.77;15.38;;;;;;;9.88;100.00;155009.44;4983769;28;20093;-80
2022/06/05 04:37:54;;;;;;;23.55;16.40;;;;;;;9.98;100.00;155032.53;4996436;28;20038;-81
2022/06/05 04:40:20;;;;;;;21.02;15.13;;;;;;;10.07;100.00;155055.63;4968451;28;20060;-80
2022/06/05 04:42:46;;;;;;;18.98;15.63;;;;;;;10.18;100.00;155082.56;4971548;23;20049;-80
2022/06/05 04:45:12;;;;;;;19.17;14.77;;;;;;;10.32;100.00;155118.50;4926666;29;20051;-80
2022/06/05 04:47:39;;;;;;;18.92;14.90;;;;;;;10.47;100.00;155155.72;4944380;28;20055;-79
2022/06/05 04:50:06;;;;;;;20.02;15.23;;;;;;;10.61;100.00;155191.66;4927380;29;20027;-81
2022/06/05 04:52:31;;;;;;;24.27;14.35;;;;;;;10.62;100.00;155192.91;4920180;28;20515;-81
2022/06/05 04:54:57;;;;;;;19.05;14.57;;;;;;;10.70;100.00;155214.75;4919849;29;20089;-82
2022/06/05 04:57:23;;;;;;;23.40;15.15;;;;;;;10.95;100.00;155276.34;4928875;29;20486;-81
2022/06/05 04:59:48;;;;;;;17.38;13.80;;;;;;;11.13;100.00;155321.22;4921681;29;20420;-81
2022/06/05 05:02:13;;;;;;;21.10;13.85;;;;;;;11.35;100.00;155375.16;4936915;28;20036;-81
2022/06/05 05:04:39;;;;;;;17.75;13.27;;;;;;;11.34;100.00;155372.56;4950931;28;20046;-82
2022/06/05 05:07:04;;;;;;;23.75;13.90;;;;;;;11.40;100.00;155389.28;4922890;29;20173;-81
2022/06/05 05:09:30;;;;;;;19.20;13.43;;;;;;;11.45;100.00;155402.13;4935661;28;20520;-77
2022/06/05 05:11:56;;;;;;;20.33;13.65;;;;;;;11.54;100.00;155422.66;4923482;29;20042;-81
2022/06/05 05:14:21;;;;;;;17.55;12.98;;;;;;;11.70;100.00;155463.75;4938048;29;20071;-84
2022/06/05 05:16:47;;;;;;;15.98;13.00;;;;;;;11.88;100.00;155509.97;4937965;28;20043;-85
2022/06/05 05:19:12;;;;;;;17.23;12.57;;;;;;;12.07;100.00;155557.53;4936248;29;20114;-81
2022/06/05 05:21:38;;;;;;;18.90;13.30;;;;;;;12.17;100.00;155580.66;4923688;28;20039;-81
2022/06/05 05:24:04;;;;;;;18.50;12.30;;;;;;;12.40;100.00;155639.72;4937161;29;20513;-83
2022/06/05 05:26:32;;;;;;;16.27;11.80;;;;;;;12.60;100.00;155689.81;4921514;29;20047;-84
2022/06/05 05:29:00;;;;;;;17.73;12.45;;;;;;;12.70;100.00;155712.94;4931736;29;20405;-82
2022/06/05 05:31:29;;;;;;;17.08;12.20;;;;;;;12.98;100.00;155784.88;4949546;28;20039;-82
2022/06/05 05:33:56;;;;;;;13.30;11.18;;;;;;;13.24;100.00;155850.41;4942746;28;20109;-81
2022/06/05 05:36:24;;;;;;;18.05;11.65;;;;;;;13.35;100.00;155877.41;4930237;28;20038;-84
2022/06/05 05:44:21;;;;;;;14.68;9.45;;;;;;;13.71;100.00;155967.44;4945776;28;20040;-83
2022/06/05 05:46:47;;;;;;;11.75;8.98;;;;;;;13.88;100.00;156008.53;4936886;29;20113;-81
2022/06/05 05:49:14;;;;;;;12.32;9.10;;;;;;;13.95;100.00;156026.53;4937999;28;20036;-83
2022/06/05 05:51:41;;;;;;;14.05;9.18;;;;;;;14.13;100.00;156071.56;4918356;28;20044;-80
2022/06/05 05:54:08;;;;;;;12.02;8.10;;;;;;;14.22;100.00;156094.66;4920825;29;20078;-79
2022/06/05 05:56:34;;;;;;;12.80;8.80;;;;;;;14.31;100.00;156116.53;4941931;28;20055;-81
2022/06/05 05:59:00;;;;;;;11.25;8.70;;;;;;;14.43;100.00;156147.44;4931525;29;20035;-82
2022/06/05 06:01:26;;;;;;;10.45;8.05;;;;;;;14.52;100.00;156170.59;4938757;29;20059;-81
2022/06/05 06:03:51;;;;;;;12.25;8.00;;;;;;;14.68;100.00;156209.22;4939498;28;20035;-83
2022/06/05 06:06:24;;;;;;;13.23;8.48;;;;;;;14.76;100.00;156231.03;4928422;29;20745;-83
2022/06/05 06:08:51;;;;;;;12.30;8.50;;;;;;;14.91;100.00;156268.34;4942485;29;20118;-84
2022/06/05 06:11:17;;;;;;;13.30;9.23;;;;;;;15.02;100.00;156295.38;4929094;29;20138;-85
2022/06/05 06:13:42;;;;;;;9.13;7.53;;;;;;;15.15;100.00;156327.56;4956344;28;20118;-82
2022/06/05 06:16:08;;;;;;;12.68;8.48;;;;;;;15.22;100.00;156344.25;4932074;29;20079;-80
2022/06/05 06:18:33;;;;;;;10.32;7.80;;;;;;;15.23;98.59;156348.13;4941919;28;20527;-80
2022/06/05 06:20:59;;;;;;;11.45;7.60;;;;;;;15.25;100.00;156352.00;4928204;28;20065;-82
2022/06/05 06:23:24;;;;;;;12.20;7.50;;;;;;;15.41;98.72;156391.84;4940591;28;20062;-81
2022/06/05 06:25:50;;;;;;;10.30;7.72;;;;;;;15.42;100.00;156395.72;4938742;29;20048;-82
2022/06/05 06:28:15;;;;;;;10.02;7.72;;;;;;;15.55;98.60;156427.91;4927730;29;20031;-82
2022/06/05 06:30:41;;;;;;;12.15;7.72;;;;;;;15.65;98.70;156452.34;4920813;29;20725;-82
2022/06/05 06:33:07;;;;;;;12.50;7.80;;;;;;;15.82;96.65;156496.13;4923132;29;20045;-78
2022/06/05 06:35:37;;;;;;;8.77;6.93;;;;;;;15.90;93.94;156516.75;4907295;29;20457;-81
2022/06/05 06:38:04;;;;;;;10.38;6.90;;;;;;;16.01;94.39;156543.81;4933504;28;20031;-80
2022/06/05 06:40:31;;;;;;;10.07;6.40;;;;;;;16.17;93.38;156583.69;4928146;29;20150;-83
2022/06/05 06:42:57;;;;;;;9.88;6.30;;;;;;;16.32;91.52;156622.31;4957801;28;20027;-87
2022/06/05 06:45:24;;;;;;;9.40;6.25;;;;;;;16.39;89.70;156639.06;4933812;29;20047;-86
2022/06/05 06:47:50;;;;;;;7.82;5.47;;;;;;;16.53;89.02;156673.81;4932949;29;20046;-81
2022/06/05 06:50:17;;;;;;;7.32;5.47;;;;;;;16.64;86.65;156702.13;4938269;29;20031;-81
2022/06/05 06:52:42;;;;;;;8.20;5.47;;;;;;;16.77;87.12;156734.34;4938101;29;20039;-80
2022/06/05 06:55:12;;;;;;;7.97;5.65;;;;;;;16.94;84.74;156776.88;4936873;29;20508;-80
2022/06/05 06:57:38;;;;;;;5.80;4.93;;;;;;;16.98;86.51;156785.91;4939319;28;20094;-85
2022/06/05 07:00:04;;;;;;;7.68;5.32;;;;;;;17.17;85.30;156833.56;4926093;29;20099;-80
2022/06/05 07:02:30;;;;;;;9.13;5.45;;;;;;;17.31;83.77;156870.91;4919699;29;20035;-81
2022/06/05 07:04:55;;;;;;;6.93;4.85;;;;;;;17.31;85.89;156869.66;4919593;29;20183;-79
2022/06/05 07:07:21;;;;;;;6.15;4.95;;;;;;;17.24;84.16;156852.88;4947480;28;20055;-79
2022/06/05 07:09:46;;;;;;;6.35;4.68;;;;;;;17.44;85.50;156901.81;4943990;28;20035;-82
2022/06/05 07:12:12;;;;;;;4.93;4.43;;;;;;;17.59;82.03;156939.16;4931898;29;20035;-79
2022/06/05 07:14:37;;;;;;;6.72;5.10;;;;;;;17.82;82.20;156997.13;4956667;28;20039;-81
2022/06/05 07:17:04;;;;;;;10.98;5.22;;;;;;;17.94;80.67;157026.88;4922321;29;20034;-79
2022/06/05 07:19:30;;;;;;;8.45;4.57;;;;;;;17.96;78.51;157032.00;4915176;29;20043;-80
2022/06/05 07:21:55;;;;;;;5.95;3.60;;;;;;;18.09;78.15;157065.50;4945205;28;20035;-83
2022/06/05 07:24:21;;;;;;;5.70;4.10;;;;;;;18.20;78.36;157092.59;4942851;28;20097;-80
2022/06/05 07:26:48;;;;;;;6.60;4.47;;;;;;;18.26;78.16;157109.31;4937258;29;20043;-80
2022/06/05 07:29:14;;;;;;;6.13;3.78;;;;;;;18.29;77.37;157115.78;4941067;28;20122;-81
2022/06/05 07:31:40;;;;;;;4.05;3.20;;;;;;;18.40;76.17;157142.81;4933291;29;20224;-82
2022/06/05 07:34:08;;;;;;;4.03;2.95;;;;;;;18.60;72.85;157194.38;4933329;29;20062;-79
2022/06/05 07:36:34;;;;;;;4.13;3.70;;;;;;;18.81;75.33;157246.00;4911118;29;20135;-81
2022/06/05 07:39:02;;;;;;;4.72;3.05;;;;;;;18.85;70.56;157257.63;4940898;28;20121;-85
2022/06/05 07:41:32;;;;;;;3.72;3.00;;;;;;;19.03;69.38;157302.75;4953171;28;20047;-84
2022/06/05 07:44:00;;;;;;;3.83;3.00;;;;;;;19.06;68.71;157310.50;4933033;29;20086;-85
2022/06/05 07:46:27;;;;;;;6.68;3.05;;;;;;;19.23;68.53;157353.06;4925520;29;20039;-81
2022/06/05 07:48:53;;;;;;;5.97;3.20;;;;;;;19.28;68.11;157364.63;4933638;29;20024;-81
2022/06/05 07:54:28;;;;;;;6.60;3.05;;;;;;;19.37;67.87;157387.84;4937146;28;20039;-81
2022/06/05 07:57:00;;;;;;;3.25;2.95;;;;;;;19.54;67.93;157430.41;4937517;28;20038;-85
2022/06/05 07:59:28;;;;;;;4.07;2.83;;;;;;;19.55;68.09;157431.69;4934021;28;20114;-84
2022/06/05 08:01:58;;;;;;;4.70;3.63;;;;;;;19.67;68.75;157462.66;4945239;28;20043;-81
2022/06/05 08:04:24;;;;;;;6.25;3.10;;;;;;;19.82;66.43;157501.41;4920675;29;20126;-79
2022/06/05 08:06:50;;;;;;;6.05;3.53;;;;;;;19.97;66.57;157538.81;4930119;28;20043;-80
2022/06/05 08:09:15;;;;;;;6.70;3.00;;;;;;;19.99;66.42;157542.69;4943647;28;20489;-80
2022/06/05 08:11:42;;;;;;;3.65;3.10;;;;;;;20.14;65.81;157581.41;4940239;29;20514;-81
2022/06/05 08:14:09;;;;;;;4.10;2.92;;;;;;;20.26;66.07;157611.06;4923926;29;20054;-79
2022/06/05 08:16:34;;;;;;;6.03;3.05;;;;;;;20.47;64.27;157662.66;4933779;29;20129;-79
2022/06/05 08:19:00;;;;;;;3.55;3.05;;;;;;;20.53;65.44;157679.47;4934593;29;20486;-81
2022/06/05 08:21:26;;;;;;;3.75;2.90;;;;;;;20.60;62.32;157696.28;4923414;29;20039;-81
2022/06/05 08:23:52;;;;;;;5.53;3.33;;;;;;;20.71;62.58;157724.66;4953414;28;20669;-80
2022/06/05 08:26:18;;;;;;;2.75;2.55;;;;;;;20.70;62.23;157722.09;4955825;28;20063;-81
2022/06/05 08:28:44;;;;;;;4.07;2.63;;;;;;;20.67;59.96;157713.06;4924340;29;20037;-78
2022/06/05 08:31:09;;;;;;;5.93;2.85;;;;;;;20.87;61.77;157763.38;4946211;29;20046;-81
2022/06/05 08:33:35;;;;;;;4.63;2.70;;;;;;;20.96;62.79;157787.94;4935958;29;20102;-81
2022/06/05 08:36:01;;;;;;;3.15;2.80;;;;;;;21.02;64.63;157800.81;4936408;29;20035;-79
2022/06/05 08:41:42;;;;;;;4.63;2.78;;;;;;;21.32;64.12;157878.28;4918448;29;20403;-83
2022/06/05 08:44:26;;;;;;;3.00;2.53;;;;;;;21.42;61.31;157901.47;4933356;29;20046;-80
2022/06/05 08:47:05;;;;;;;3.55;2.67;;;;;;;21.22;61.13;157852.44;4921679;29;20498;-80
2022/06/05 08:49:45;;;;;;;4.32;2.90;;;;;;;21.36;61.39;157888.59;4953881;28;20455;-78
2022/06/05 08:52:27;;;;;;;2.78;2.53;;;;;;;21.60;60.96;157948.03;4940722;28;20043;-81
2022/06/05 08:55:02;;;;;;;;;;;;;;;21.74;58.80;157984.19;4926229;29;20717;-81
2022/06/05 08:57:27;;;;;;;3.45;2.38;;;;;;;21.72;59.12;157979.03;4936186;29;19924;-81
2022/06/05 09:00:03;;;;;;;3.13;2.42;;;;;;;21.75;56.73;157986.75;4928202;28;20031;-80
2022/06/05 09:03:07;;;;;;;3.90;2.40;;;;;;;21.77;56.81;157990.63;4924904;29;20047;-83
2022/06/05 09:05:40;;;;;;;2.50;2.30;;;;;;;21.87;57.89;158015.16;4890185;28;20059;-81
2022/06/05 09:08:14;;;;;;;3.10;2.25;;;;;;;21.98;56.19;158043.56;4956471;28;20612;-82
2022/06/05 09:10:46;;;;;;;6.05;2.50;;;;;;;22.15;56.21;158086.19;4945475;29;20035;-79
2022/06/05 09:13:22;;;;;;;;;;;;;;;22.33;57.69;158131.47;4928991;29;20143;-81
2022/06/05 09:15:58;;;;;;;4.57;2.40;;;;;;;22.42;55.98;158153.44;4928091;29;19914;-80
2022/06/05 09:18:28;;;;;;;3.50;2.28;;;;;;;22.52;55.98;158180.53;4920439;29;20034;-81
2022/06/05 09:21:05;;;;;;;2.95;2.47;;;;;;;22.54;54.44;158184.41;4951622;28;20031;-81
2022/06/05 09:23:39;;;;;;;2.72;2.13;;;;;;;22.68;52.99;158220.59;4934762;29;20042;-81
2022/06/05 09:26:36;;;;;;;2.30;2.10;;;;;;;22.67;53.37;158216.72;4918656;29;20035;-81
2022/06/05 09:29:31;;;;;;;2.78;2.28;;;;;;;22.78;51.80;158243.88;4920245;29;20039;-81
2022/06/05 09:32:20;;;;;;;2.13;1.92;;;;;;;22.69;51.38;158223.16;4907437;29;20106;-84
2022/06/05 09:34:54;;;;;;;3.50;2.20;;;;;;;22.76;52.65;158239.97;4939942;29;20459;-86
2022/06/05 09:37:32;;;;;;;2.42;1.90;;;;;;;22.72;50.11;158229.66;4943297;29;20067;-84
2022/06/05 09:40:03;;;;;;;3.35;2.10;;;;;;;22.70;52.59;158224.50;4931668;29;20517;-85
2022/06/05 09:42:47;;;;;;;2.63;1.90;;;;;;;22.96;51.62;158289.06;4935210;28;20090;-79
2022/06/05 09:45:27;;;;;;;3.38;2.15;;;;;;;22.51;49.64;158177.97;4914761;29;20040;-85
2022/06/05 09:48:12;;;;;;;2.75;2.20;;;;;;;22.57;52.30;158192.19;4944173;28;20059;-84
2022/06/05 09:50:38;;;;;;;2.20;2.00;;;;;;;22.79;53.46;158247.69;4948378;28;20071;-83
2022/06/05 09:53:04;;;;;;;1.95;1.70;;;;;;;22.80;47.80;158249.03;4926093;29;20046;-82
2022/06/05 09:55:32;;;;;;;3.55;1.77;;;;;;;22.79;51.40;158246.44;4928395;29;20120;-79
2022/06/05 09:58:26;;;;;;;1.98;1.80;;;;;;;22.80;50.86;158250.31;4922901;29;20034;-84
2022/06/05 10:00:54;;;;;;;2.90;1.60;;;;;;;22.98;51.91;158294.22;4928738;29;20093;-83
2022/06/05 10:03:29;;;;;;;2.00;1.60;;;;;;;22.88;49.14;158270.97;4935381;29;20047;-84
2022/06/05 10:06:21;;;;;;;1.98;1.80;;;;;;;22.78;50.59;158245.16;4935279;29;20399;-81
2022/06/05 10:09:03;;;;;;;3.95;1.90;;;;;;;23.04;52.46;158309.81;4935990;28;20054;-80
2022/06/05 10:11:28;;;;;;;3.70;1.80;;;;;;;23.47;47.66;158418.31;4935559;29;20059;-79
2022/06/05 10:14:02;;;;;;;2.20;1.70;;;;;;;23.63;46.64;158459.69;4927893;29;20124;-84
2022/06/05 10:16:43;;;;;;;3.22;1.70;;;;;;;24.02;46.89;158558.00;4947854;28;20043;-80
2022/06/05 10:19:15;;;;;;;2.10;1.52;;;;;;;24.22;45.88;158607.09;4929711;29;20042;-79
2022/06/05 10:21:49;;;;;;;2.43;1.33;;;;;;;24.35;43.41;158640.72;4943169;28;20139;-78
2022/06/05 10:24:26;;;;;;;3.03;1.73;;;;;;;24.71;44.18;158730.00;4936014;29;20277;-77
2022/06/05 10:27:00;;;;;;;2.83;1.75;;;;;;;24.78;42.91;158749.38;4962992;28;20863;-78
2022/06/05 10:29:34;;;;;;;3.13;1.95;;;;;;;24.68;42.18;158723.56;4935943;28;20043;-79
2022/06/05 10:32:17;;;;;;;3.72;2.10;;;;;;;24.58;43.45;158699.00;4945958;28;20046;-79
2022/06/05 10:35:11;;;;;;;3.80;2.00;;;;;;;24.04;45.27;158561.88;4950064;28;20474;-80
2022/06/05 10:37:42;;;;;;;3.40;1.80;;;;;;;24.31;43.73;158629.09;4935660;28;20051;-83
2022/06/05 10:40:21;;;;;;;2.55;2.28;;;;;;;24.45;44.25;158665.31;4932163;28;20062;-81
2022/06/05 10:42:59;;;;;;;4.60;1.88;;;;;;;24.31;44.80;158629.09;4950540;28;20049;-81
2022/06/05 10:45:41;;;;;;;2.30;1.80;;;;;;;24.40;46.49;158652.38;4939182;29;20047;-80
2022/06/05 10:48:24;;;;;;;4.13;1.83;;;;;;;24.63;44.46;158711.88;4952527;28;20505;-78
2022/06/05 10:50:55;;;;;;;2.53;1.80;;;;;;;24.58;44.95;158697.66;4923594;28;20114;-85
2022/06/05 10:53:40;;;;;;;2.28;1.83;;;;;;;24.43;43.61;158661.44;4953874;28;20061;-81
2022/06/05 10:56:15;;;;;;;4.00;1.75;;;;;;;24.64;46.13;158713.22;4931553;29;20043;-81
2022/06/05 10:58:55;;;;;;;3.10;2.10;;;;;;;24.87;46.51;158771.41;4923852;28;20090;-83
2022/06/05 11:01:45;;;;;;;2.47;2.10;;;;;;;24.68;43.95;158723.56;4936127;29;20047;-79
2022/06/05 11:04:26;;;;;;;2.75;2.15;;;;;;;24.53;45.01;158684.75;4920748;29;20028;-81
2022/06/05 11:07:14;;;;;;;3.47;2.13;;;;;;;24.72;48.53;158733.88;4915122;29;20054;-80
2022/06/05 11:13:39;;;;;;;2.55;2.20;;;;;;;25.20;46.06;158854.16;4940648;28;20545;-81
2022/06/05 11:13:44;;;;;;;2.38;2.10;;;;;;;25.29;43.57;158876.22;4927510;28;20083;-81
2022/06/05 11:16:25;;;;;;;3.88;2.13;;;;;;;25.35;45.64;158893.00;4949037;28;20055;-79
2022/06/05 11:19:16;;;;;;;2.75;2.30;;;;;;;25.54;46.28;158939.56;4967069;28;20147;-81
2022/06/05 11:21:43;;;;;;;2.70;2.08;;;;;;;25.64;44.09;158966.75;4951592;28;20118;-80
2022/06/05 11:24:23;;;;;;;3.63;2.25;;;;;;;25.62;43.29;158961.59;4938996;29;20430;-81
2022/06/05 11:27:05;;;;;;;2.17;1.80;;;;;;;25.63;44.19;158964.16;4927238;28;20031;-82
2022/06/05 11:29:56;;;;;;;5.03;2.17;;;;;;;25.85;44.06;159018.50;4917921;29;20083;-80
2022/06/05 11:32:43;;;;;;;2.90;1.95;;;;;;;25.86;43.80;159019.78;4937772;29;20051;-78
2022/06/05 11:35:17;;;;;;;2.75;1.90;;;;;;;25.67;41.83;158971.94;4939627;28;20038;-80
2022/06/05 11:37:53;;;;;;;3.13;1.90;;;;;;;25.56;46.47;158946.06;4942268;28;20039;-83
2022/06/05 11:40:23;;;;;;;3.05;1.85;;;;;;;25.19;41.28;158851.59;4944186;28;20137;-81
2022/06/05 11:43:19;;;;;;;1.95;1.80;;;;;;;25.30;41.95;158880.09;4948174;28;20043;-79
2022/06/05 11:46:04;;;;;;;3.03;1.80;;;;;;;25.53;41.38;158938.28;4932582;29;20048;-80
2022/06/05 11:48:55;;;;;;;1.90;1.73;;;;;;;25.72;40.73;158984.88;4948322;28;20047;-80
2022/06/05 11:51:37;;;;;;;1.80;1.70;;;;;;;25.51;39.19;158931.84;4927213;29;20390;-83
2022/06/05 11:54:22;;;;;;;1.77;1.67;;;;;;;25.54;42.39;158940.91;4941673;29;20031;-80